createdAt,value
2018-10-17T00:00:49.380Z,0.00
2018-10-17T00:01:49.369Z,0.00
2018-10-17T00:02:49.366Z,0.00
2018-10-17T00:03:49.372Z,0.00
2018-10-17T00:04:49.365Z,0.00
2018-10-17T00:05:49.375Z,0.00
2018-10-17T00:06:49.360Z,0.00
2018-10-17T00:07:49.364Z,0.00
2018-10-17T00:08:49.358Z,0.00
2018-10-17T00:09:49.379Z,0.00
2018-10-17T00:10:49.359Z,0.00
2018-10-17T00:11:49.357Z,0.00
2018-10-17T00:12:49.355Z,0.00
2018-10-17T00:13:49.356Z,0.00
2018-10-17T00:14:49.357Z,0.00
2018-10-17T00:15:49.351Z,0.00
2018-10-17T00:16:49.365Z,0.00
2018-10-17T00:17:49.360Z,0.00
2018-10-17T00:18:49.344Z,0.00
2018-10-17T00:19:49.343Z,0.00
2018-10-17T00:20:49.341Z,0.00
2018-10-17T00:21:49.344Z,0.00
2018-10-17T00:22:49.341Z,0.00
2018-10-17T00:23:49.339Z,0.00
2018-10-17T00:24:49.339Z,0.00
2018-10-17T00:25:49.354Z,0.00
2018-10-17T00:26:49.336Z,0.00
2018-10-17T00:27:49.336Z,0.00
2018-10-17T00:28:49.332Z,0.00
2018-10-17T00:29:49.331Z,0.00
2018-10-17T00:30:49.329Z,0.00
2018-10-17T00:31:49.328Z,0.00
2018-10-17T00:32:49.330Z,0.00
2018-10-17T00:33:49.325Z,0.00
2018-10-17T00:34:49.325Z,0.00
2018-10-17T00:35:49.324Z,0.00
2018-10-17T00:36:49.323Z,0.00
2018-10-17T00:37:49.320Z,0.00
2018-10-17T00:38:49.319Z,0.00
2018-10-17T00:39:49.317Z,0.00
2018-10-17T00:40:49.316Z,0.00
2018-10-17T00:41:49.313Z,0.00
2018-10-17T00:42:49.311Z,0.00
2018-10-17T00:43:49.309Z,0.00
2018-10-17T00:44:49.310Z,0.00
2018-10-17T00:45:49.311Z,0.00
2018-10-17T00:46:49.304Z,0.00
2018-10-17T00:47:49.306Z,0.00
2018-10-17T00:48:49.305Z,0.00
2018-10-17T00:49:49.303Z,0.00
2018-10-17T00:50:49.318Z,0.00
2018-10-17T00:51:49.300Z,0.00
2018-10-17T00:52:49.296Z,0.00
2018-10-17T00:53:49.302Z,0.00
2018-10-17T00:54:49.295Z,0.00
2018-10-17T00:55:49.295Z,0.00
2018-10-17T00:56:49.291Z,0.00
2018-10-17T00:57:49.297Z,0.00
2018-10-17T00:58:49.287Z,0.00
2018-10-17T00:59:49.287Z,0.00
2018-10-17T01:00:49.286Z,0.00
2018-10-17T01:01:49.284Z,0.00
2018-10-17T01:02:49.283Z,0.00
2018-10-17T01:03:49.284Z,0.00
2018-10-17T01:04:49.287Z,0.00
2018-10-17T01:05:49.280Z,0.00
2018-10-17T01:06:49.276Z,0.00
2018-10-17T01:07:49.297Z,0.00
2018-10-17T01:08:49.273Z,0.00
2018-10-17T01:09:49.273Z,0.00
2018-10-17T01:10:49.282Z,0.00
2018-10-17T01:11:49.269Z,0.00
2018-10-17T01:12:49.271Z,0.00
2018-10-17T01:13:49.266Z,0.00
2018-10-17T01:14:49.265Z,0.00
2018-10-17T01:15:49.265Z,0.00
2018-10-17T01:16:49.263Z,0.00
2018-10-17T01:17:49.269Z,0.00
2018-10-17T01:18:49.257Z,0.00
2018-10-17T01:19:49.258Z,0.00
2018-10-17T01:20:49.256Z,0.00
2018-10-17T01:21:49.255Z,0.00
2018-10-17T01:22:49.253Z,0.00
2018-10-17T01:23:49.251Z,0.00
2018-10-17T01:24:49.250Z,0.00
2018-10-17T01:25:49.248Z,0.00
2018-10-17T01:26:49.247Z,0.00
2018-10-17T01:27:49.302Z,0.00
2018-10-17T01:28:49.248Z,0.00
2018-10-17T01:29:49.243Z,0.00
2018-10-17T01:30:49.240Z,0.00
2018-10-17T01:31:49.239Z,0.00
2018-10-17T01:32:49.236Z,0.00
2018-10-17T01:33:49.464Z,0.00
2018-10-17T01:34:49.254Z,0.00
2018-10-17T01:35:49.235Z,0.00
2018-10-17T01:36:49.232Z,0.00
2018-10-17T01:37:49.228Z,0.00
2018-10-17T01:38:49.228Z,0.00
2018-10-17T01:39:49.225Z,0.00
2018-10-17T01:40:49.225Z,0.00
2018-10-17T01:41:49.222Z,0.00
2018-10-17T01:42:49.221Z,0.00
2018-10-17T01:43:49.219Z,0.00
2018-10-17T01:44:49.219Z,0.00
2018-10-17T01:45:49.215Z,0.00
2018-10-17T01:46:49.211Z,0.00
2018-10-17T01:47:49.217Z,0.00
2018-10-17T01:48:49.208Z,0.00
2018-10-17T01:49:49.207Z,0.00
2018-10-17T01:50:49.206Z,0.00
2018-10-17T01:51:49.205Z,0.00
2018-10-17T01:52:49.205Z,0.00
2018-10-17T01:53:49.221Z,0.00
2018-10-17T01:54:49.205Z,0.00
2018-10-17T01:55:49.204Z,0.00
2018-10-17T01:56:49.198Z,0.00
2018-10-17T01:57:49.195Z,0.00
2018-10-17T01:58:49.193Z,0.00
2018-10-17T01:59:49.192Z,0.00
2018-10-17T02:00:49.190Z,0.00
2018-10-17T02:01:49.189Z,0.00
2018-10-17T02:02:49.185Z,0.00
2018-10-17T02:03:49.194Z,0.00
2018-10-17T02:04:49.187Z,0.00
2018-10-17T02:05:49.187Z,0.00
2018-10-17T02:06:49.185Z,0.00
2018-10-17T02:07:49.176Z,0.00
2018-10-17T02:08:49.181Z,0.00
2018-10-17T02:09:49.173Z,0.00
2018-10-17T02:10:49.174Z,0.00
2018-10-17T02:11:49.171Z,0.00
2018-10-17T02:12:49.169Z,0.00
2018-10-17T02:13:49.167Z,0.00
2018-10-17T02:14:49.172Z,0.00
2018-10-17T02:15:49.165Z,0.00
2018-10-17T02:16:49.164Z,0.00
2018-10-17T02:17:49.159Z,0.00
2018-10-17T02:18:49.160Z,0.00
2018-10-17T02:19:49.163Z,0.00
2018-10-17T02:20:49.173Z,0.00
2018-10-17T02:21:49.156Z,0.00
2018-10-17T02:22:49.167Z,0.00
2018-10-17T02:23:49.150Z,0.00
2018-10-17T02:24:49.159Z,0.00
2018-10-17T02:25:49.156Z,0.00
2018-10-17T02:26:49.159Z,0.00
2018-10-17T02:27:49.141Z,0.00
2018-10-17T02:28:49.178Z,0.00
2018-10-17T02:29:49.169Z,0.00
2018-10-17T02:30:49.140Z,0.00
2018-10-17T02:31:49.141Z,0.00
2018-10-17T02:32:49.137Z,0.00
2018-10-17T02:33:49.135Z,0.00
2018-10-17T02:34:49.132Z,0.00
2018-10-17T02:35:49.135Z,0.00
2018-10-17T02:36:49.129Z,0.00
2018-10-17T02:37:49.129Z,0.00
2018-10-17T02:38:49.159Z,0.00
2018-10-17T02:39:49.281Z,0.00
2018-10-17T02:40:49.176Z,0.00
2018-10-17T02:41:49.122Z,0.00
2018-10-17T02:42:49.127Z,0.00
2018-10-17T02:43:49.117Z,0.00
2018-10-17T02:44:49.119Z,0.00
2018-10-17T02:45:49.114Z,0.00
2018-10-17T02:46:49.112Z,0.00
2018-10-17T02:47:49.131Z,0.00
2018-10-17T02:48:49.109Z,0.00
2018-10-17T02:49:49.102Z,0.00
2018-10-17T02:50:49.105Z,0.00
2018-10-17T02:51:49.104Z,0.00
2018-10-17T02:53:41.997Z,0.00
2018-10-17T02:54:41.984Z,0.00
2018-10-17T02:56:34.863Z,0.00
2018-10-17T02:57:34.882Z,0.00
2018-10-17T02:59:27.727Z,0.00
2018-10-17T03:00:27.712Z,0.00
2018-10-17T03:02:20.754Z,0.00
2018-10-17T03:03:20.575Z,0.00
2018-10-17T03:05:14.076Z,0.00
2018-10-17T03:06:13.997Z,0.00
2018-10-17T03:08:07.430Z,0.00
2018-10-17T03:09:07.433Z,0.00
2018-10-17T03:11:00.337Z,0.00
2018-10-17T03:12:00.288Z,0.00
2018-10-17T03:13:54.237Z,0.00
2018-10-17T03:14:54.154Z,0.00
2018-10-17T03:16:47.039Z,0.00
2018-10-17T03:17:47.032Z,0.00
2018-10-17T03:19:39.885Z,0.00
2018-10-17T03:20:39.915Z,0.00
2018-10-17T03:22:32.866Z,0.00
2018-10-17T03:23:32.747Z,0.00
2018-10-17T03:25:25.643Z,0.00
2018-10-17T03:26:25.615Z,0.00
2018-10-17T03:28:18.566Z,0.00
2018-10-17T03:29:18.943Z,0.00
2018-10-17T03:31:12.043Z,0.00
2018-10-17T03:32:11.914Z,0.00
2018-10-17T03:33:11.914Z,0.00
2018-10-17T03:34:11.884Z,0.00
2018-10-17T03:35:11.965Z,0.00
2018-10-17T03:36:11.885Z,0.00
2018-10-17T03:37:11.982Z,0.00
2018-10-17T03:38:11.885Z,0.00
2018-10-17T03:39:12.352Z,0.00
2018-10-17T03:40:12.049Z,0.00
2018-10-17T03:41:11.945Z,0.00
2018-10-17T03:42:11.871Z,0.00
2018-10-17T03:43:11.914Z,0.00
2018-10-17T03:44:11.870Z,0.00
2018-10-17T03:45:11.863Z,0.00
2018-10-17T03:46:11.864Z,0.00
2018-10-17T03:47:11.924Z,0.00
2018-10-17T03:48:11.861Z,0.00
2018-10-17T03:49:11.942Z,0.00
2018-10-17T03:50:11.856Z,0.00
2018-10-17T03:51:11.850Z,0.00
2018-10-17T03:52:11.879Z,0.00
2018-10-17T03:53:11.946Z,0.00
2018-10-17T03:54:11.851Z,0.00
2018-10-17T03:55:11.905Z,0.00
2018-10-17T03:56:11.848Z,0.00
2018-10-17T03:57:11.841Z,0.00
2018-10-17T03:58:11.836Z,0.00
2018-10-17T03:59:11.944Z,0.00
2018-10-17T04:00:11.834Z,0.00
2018-10-17T04:01:11.881Z,0.00
2018-10-17T04:02:11.846Z,0.00
2018-10-17T04:03:11.891Z,0.00
2018-10-17T04:04:11.834Z,0.00
2018-10-17T04:05:11.917Z,0.00
2018-10-17T04:06:11.819Z,0.00
2018-10-17T04:07:11.841Z,0.00
2018-10-17T04:08:11.816Z,0.00
2018-10-17T04:09:11.814Z,0.00
2018-10-17T04:10:11.812Z,0.00
2018-10-17T04:11:11.911Z,0.00
2018-10-17T04:12:11.809Z,0.00
2018-10-17T04:13:11.882Z,0.00
2018-10-17T04:14:11.806Z,0.00
2018-10-17T04:15:11.801Z,0.00
2018-10-17T04:16:11.804Z,0.00
2018-10-17T04:17:11.834Z,0.00
2018-10-17T04:18:11.811Z,0.00
2018-10-17T04:19:11.840Z,0.00
2018-10-17T04:20:11.801Z,0.00
2018-10-17T04:21:11.791Z,0.00
2018-10-17T04:22:11.791Z,0.00
2018-10-17T04:51:47.211Z,0.00
2018-10-17T04:52:47.036Z,0.00
2018-10-17T04:53:47.035Z,0.00
2018-10-17T04:54:47.055Z,0.00
2018-10-17T04:55:47.041Z,0.00
2018-10-17T04:56:47.017Z,0.00
2018-10-17T04:57:47.039Z,0.00
2018-10-17T04:58:47.010Z,0.00
2018-10-17T04:59:47.049Z,0.00
2018-10-17T05:00:47.008Z,0.00
2018-10-17T05:01:47.171Z,0.00
2018-10-17T05:02:46.991Z,0.00
2018-10-17T05:03:46.989Z,0.00
2018-10-17T05:04:47.012Z,0.00
2018-10-17T05:05:46.980Z,0.00
2018-10-17T05:06:47.008Z,0.00
2018-10-17T05:07:46.975Z,0.00
2018-10-17T05:08:46.971Z,0.00
2018-10-17T05:09:46.968Z,0.00
2018-10-17T05:10:46.985Z,0.00
2018-10-17T05:11:46.966Z,0.00
2018-10-17T05:12:46.960Z,0.00
2018-10-17T05:13:46.959Z,0.00
2018-10-17T05:14:46.952Z,0.00
2018-10-17T05:15:46.950Z,0.00
2018-10-17T05:16:46.949Z,0.00
2018-10-17T05:17:46.945Z,0.00
2018-10-17T05:18:46.944Z,0.00
2018-10-17T05:19:46.941Z,0.00
2018-10-17T05:20:46.938Z,0.00
2018-10-17T05:21:46.948Z,0.00
2018-10-17T05:22:46.929Z,0.00
2018-10-17T05:23:46.928Z,0.00
2018-10-17T05:24:46.928Z,0.00
2018-10-17T05:25:46.925Z,0.00
2018-10-17T05:26:46.923Z,0.00
2018-10-17T05:27:46.930Z,0.00
2018-10-17T05:28:46.922Z,0.00
2018-10-17T05:29:47.002Z,0.00
2018-10-17T05:30:46.914Z,0.00
2018-10-17T05:31:46.911Z,0.00
2018-10-17T05:32:46.909Z,0.00
2018-10-17T05:33:46.904Z,0.00
2018-10-17T05:34:46.904Z,0.00
2018-10-17T05:35:46.904Z,0.00
2018-10-17T05:36:46.896Z,0.00
2018-10-17T05:37:46.983Z,0.00
2018-10-17T05:38:46.901Z,0.00
2018-10-17T05:39:46.892Z,0.00
2018-10-17T05:40:46.890Z,0.00
2018-10-17T05:41:46.899Z,0.00
2018-10-17T05:42:46.884Z,0.00
2018-10-17T05:43:46.882Z,0.00
2018-10-17T05:44:46.889Z,0.00
2018-10-17T05:45:46.889Z,0.00
2018-10-17T05:46:46.876Z,0.00
2018-10-17T05:47:46.874Z,0.00
2018-10-17T05:48:46.868Z,0.00
2018-10-17T05:49:46.872Z,0.00
2018-10-17T05:50:46.870Z,5.63
2018-10-17T05:51:46.869Z,5.63
2018-10-17T05:52:46.861Z,5.63
2018-10-17T05:53:46.860Z,5.63
2018-10-17T05:54:46.861Z,5.63
2018-10-17T05:55:46.857Z,5.63
2018-10-17T05:56:46.892Z,5.63
2018-10-17T05:57:46.854Z,5.63
2018-10-17T05:58:46.851Z,5.63
2018-10-17T05:59:46.850Z,5.63
2018-10-17T06:00:46.849Z,11.25
2018-10-17T06:01:46.957Z,11.25
2018-10-17T06:02:46.844Z,11.25
2018-10-17T06:03:46.841Z,11.25
2018-10-17T06:04:46.838Z,11.25
2018-10-17T06:05:46.851Z,11.25
2018-10-17T06:06:46.835Z,16.88
2018-10-17T06:07:46.835Z,16.88
2018-10-17T06:08:46.835Z,16.88
2018-10-17T06:09:46.831Z,16.88
2018-10-17T06:10:46.847Z,22.50
2018-10-17T06:11:46.828Z,22.50
2018-10-17T06:12:46.830Z,22.50
2018-10-17T06:13:46.824Z,22.50
2018-10-17T06:14:46.821Z,28.13
2018-10-17T06:15:46.817Z,33.75
2018-10-17T06:16:46.890Z,33.75
2018-10-17T06:17:46.817Z,33.75
2018-10-17T06:18:46.819Z,39.38
2018-10-17T06:19:46.812Z,39.38
2018-10-17T06:20:46.815Z,39.38
2018-10-17T06:21:46.810Z,45.00
2018-10-17T06:22:46.807Z,45.00
2018-10-17T06:23:46.805Z,45.00
2018-10-17T06:24:46.805Z,39.38
2018-10-17T06:25:46.807Z,39.38
2018-10-17T06:26:46.804Z,45.00
2018-10-17T06:27:46.801Z,50.63
2018-10-17T06:28:46.800Z,50.63
2018-10-17T06:29:46.798Z,50.63
2018-10-17T06:30:46.805Z,50.63
2018-10-17T06:31:46.799Z,61.88
2018-10-17T06:32:46.794Z,67.50
2018-10-17T06:33:46.844Z,73.13
2018-10-17T06:34:46.861Z,67.50
2018-10-17T06:35:46.791Z,56.25
2018-10-17T06:36:46.793Z,56.25
2018-10-17T06:37:46.799Z,56.25
2018-10-17T06:38:46.789Z,56.25
2018-10-17T06:39:46.787Z,61.88
2018-10-17T06:40:46.791Z,67.50
2018-10-17T06:41:46.788Z,78.75
2018-10-17T06:42:46.787Z,73.13
2018-10-17T06:43:46.837Z,73.13
2018-10-17T06:44:46.786Z,73.13
2018-10-17T06:45:46.785Z,101.25
2018-10-17T06:46:46.786Z,157.50
2018-10-17T06:47:46.785Z,191.25
2018-10-17T06:48:46.784Z,225.00
2018-10-17T06:49:46.784Z,225.00
2018-10-17T06:50:46.781Z,236.25
2018-10-17T06:51:46.784Z,264.38
2018-10-17T06:52:46.781Z,264.38
2018-10-17T06:53:46.785Z,258.75
2018-10-17T06:54:46.791Z,270.00
2018-10-17T06:55:46.783Z,303.75
2018-10-17T06:56:46.784Z,331.88
2018-10-17T06:57:46.784Z,337.50
2018-10-17T06:58:46.784Z,371.25
2018-10-17T06:59:46.784Z,388.13
2018-10-17T07:00:46.787Z,405.00
2018-10-17T07:01:46.847Z,433.13
2018-10-17T07:02:46.783Z,450.00
2018-10-17T07:03:46.788Z,495.00
2018-10-17T07:04:46.790Z,506.25
2018-10-17T07:05:46.791Z,517.50
2018-10-17T07:06:46.797Z,545.63
2018-10-17T07:07:46.792Z,551.25
2018-10-17T07:08:46.801Z,562.50
2018-10-17T07:09:46.798Z,596.25
2018-10-17T07:10:46.798Z,613.13
2018-10-17T07:11:46.818Z,607.50
2018-10-17T07:12:46.805Z,590.63
2018-10-17T07:13:46.807Z,618.75
2018-10-17T07:14:46.809Z,613.13
2018-10-17T07:15:46.899Z,596.25
2018-10-17T07:16:46.812Z,607.50
2018-10-17T07:17:46.821Z,613.13
2018-10-17T07:18:46.828Z,618.75
2018-10-17T07:19:46.825Z,596.25
2018-10-17T07:20:46.830Z,568.13
2018-10-17T07:21:46.833Z,444.38
2018-10-17T07:22:46.842Z,225.00
2018-10-17T07:23:46.838Z,213.75
2018-10-17T07:24:46.846Z,191.25
2018-10-17T07:25:46.850Z,163.13
2018-10-17T07:26:46.855Z,163.13
2018-10-17T07:27:46.856Z,163.13
2018-10-17T07:28:46.898Z,163.13
2018-10-17T07:29:46.971Z,168.75
2018-10-17T07:30:46.865Z,168.75
2018-10-17T07:31:46.872Z,168.75
2018-10-17T07:32:46.876Z,168.75
2018-10-17T07:33:46.878Z,168.75
2018-10-17T07:34:46.882Z,174.38
2018-10-17T07:35:46.980Z,174.38
2018-10-17T07:36:46.889Z,174.38
2018-10-17T07:37:46.892Z,174.38
2018-10-17T07:38:46.899Z,180.00
2018-10-17T07:39:46.897Z,180.00
2018-10-17T07:40:46.899Z,180.00
2018-10-17T07:41:46.908Z,180.00
2018-10-17T07:42:46.908Z,180.00
2018-10-17T07:43:46.912Z,185.63
2018-10-17T07:44:46.915Z,185.63
2018-10-17T07:45:46.983Z,185.63
2018-10-17T07:46:46.921Z,191.25
2018-10-17T07:47:46.927Z,191.25
2018-10-17T07:48:46.926Z,191.25
2018-10-17T07:49:46.935Z,196.88
2018-10-17T07:50:46.935Z,196.88
2018-10-17T07:51:46.937Z,196.88
2018-10-17T07:52:46.940Z,202.50
2018-10-17T07:53:46.948Z,202.50
2018-10-17T07:54:46.944Z,202.50
2018-10-17T07:55:46.949Z,202.50
2018-10-17T07:56:46.952Z,208.13
2018-10-17T07:57:46.956Z,208.13
2018-10-17T07:58:46.963Z,213.75
2018-10-17T07:59:47.031Z,225.00
2018-10-17T08:00:46.967Z,247.50
2018-10-17T08:01:46.974Z,365.63
2018-10-17T08:02:46.970Z,388.13
2018-10-17T08:03:46.975Z,253.13
2018-10-17T08:04:46.975Z,230.63
2018-10-17T08:05:46.986Z,241.88
2018-10-17T08:06:47.077Z,236.25
2018-10-17T08:07:46.987Z,230.63
2018-10-17T08:08:46.991Z,230.63
2018-10-17T08:09:46.993Z,230.63
2018-10-17T08:10:46.998Z,236.25
2018-10-17T08:11:47.009Z,236.25
2018-10-17T08:12:47.004Z,247.50
2018-10-17T08:13:47.008Z,247.50
2018-10-17T08:14:47.011Z,247.50
2018-10-17T08:15:47.015Z,253.13
2018-10-17T08:16:47.021Z,253.13
2018-10-17T08:17:47.028Z,258.75
2018-10-17T08:18:47.026Z,264.38
2018-10-17T08:19:47.029Z,286.88
2018-10-17T08:20:47.034Z,421.88
2018-10-17T08:21:47.036Z,669.38
2018-10-17T08:22:47.041Z,894.38
2018-10-17T08:24:28.187Z,911.25
2018-10-17T08:25:28.115Z,905.63
2018-10-17T08:26:28.128Z,911.25
2018-10-17T08:27:28.133Z,911.25
2018-10-17T08:28:28.146Z,911.25
2018-10-17T08:29:28.138Z,916.88
2018-10-17T08:30:28.154Z,922.50
2018-10-17T08:31:28.154Z,933.75
2018-10-17T08:32:28.155Z,939.38
2018-10-17T08:33:28.160Z,939.38
2018-10-17T08:34:28.163Z,939.38
2018-10-17T08:35:28.316Z,933.75
2018-10-17T08:36:28.579Z,939.38
2018-10-17T08:37:28.673Z,945.00
2018-10-17T08:38:28.193Z,950.63
2018-10-17T08:39:28.195Z,961.88
2018-10-17T08:40:28.205Z,978.75
2018-10-17T08:41:28.214Z,1001.25
2018-10-17T08:42:28.221Z,1012.50
2018-10-17T08:43:28.225Z,1023.75
2018-10-17T08:44:28.232Z,1035.00
2018-10-17T08:45:28.244Z,1040.63
2018-10-17T08:46:28.260Z,1068.75
2018-10-17T08:47:28.263Z,1091.25
2018-10-17T08:48:28.266Z,1125.00
2018-10-17T08:49:28.276Z,1063.13
2018-10-17T08:50:28.324Z,1113.75
2018-10-17T08:51:28.293Z,1170.00
2018-10-17T08:52:28.312Z,1175.63
2018-10-17T08:53:28.310Z,1170.00
2018-10-17T08:54:28.319Z,1170.00
2018-10-17T08:55:28.334Z,1164.38
2018-10-17T08:56:28.344Z,1164.38
2018-10-17T08:57:28.354Z,1136.25
2018-10-17T08:58:28.363Z,1012.50
2018-10-17T08:59:28.375Z,933.75
2018-10-17T09:00:28.392Z,1158.75
2018-10-17T09:01:28.398Z,1192.50
2018-10-17T09:02:28.407Z,1198.13
2018-10-17T09:03:28.418Z,1215.00
2018-10-17T09:04:28.430Z,1215.00
2018-10-17T09:05:28.439Z,770.63
2018-10-17T09:06:28.455Z,658.13
2018-10-17T09:07:28.462Z,810.00
2018-10-17T09:08:28.474Z,517.50
2018-10-17T09:09:28.484Z,500.63
2018-10-17T09:10:28.499Z,613.13
2018-10-17T09:11:28.508Z,624.38
2018-10-17T09:12:28.524Z,770.63
2018-10-17T09:13:28.584Z,500.63
2018-10-17T09:14:28.539Z,450.00
2018-10-17T09:15:28.552Z,540.00
2018-10-17T09:16:28.621Z,472.50
2018-10-17T09:17:28.572Z,433.13
2018-10-17T09:18:28.585Z,388.13
2018-10-17T09:19:28.662Z,416.25
2018-10-17T09:20:28.778Z,376.88
2018-10-17T09:21:29.021Z,388.13
2018-10-17T09:22:28.747Z,421.88
2018-10-17T09:23:28.626Z,382.50
2018-10-17T09:24:28.636Z,343.13
2018-10-17T09:25:28.677Z,326.25
2018-10-17T09:26:28.656Z,309.38
2018-10-17T09:27:28.665Z,292.50
2018-10-17T09:28:28.676Z,281.25
2018-10-17T09:29:28.683Z,298.13
2018-10-17T09:30:28.771Z,343.13
2018-10-17T09:31:28.689Z,669.38
2018-10-17T09:32:28.699Z,337.50
2018-10-17T09:33:28.706Z,292.50
2018-10-17T09:34:28.713Z,241.88
2018-10-17T09:35:28.767Z,230.63
2018-10-17T09:36:28.727Z,230.63
2018-10-17T09:37:28.732Z,236.25
2018-10-17T09:38:28.740Z,247.50
2018-10-17T09:39:28.753Z,253.13
2018-10-17T09:40:28.753Z,275.63
2018-10-17T09:41:28.760Z,315.00
2018-10-17T09:42:28.765Z,410.63
2018-10-17T09:43:28.770Z,742.50
2018-10-17T09:44:28.781Z,2368.13
2018-10-17T09:45:28.782Z,2351.25
2018-10-17T09:46:28.785Z,2306.25
2018-10-17T09:47:28.796Z,2368.13
2018-10-17T09:48:28.803Z,2379.38
2018-10-17T09:49:28.809Z,2430.00
2018-10-17T09:50:28.817Z,2379.38
2018-10-17T09:51:28.823Z,2356.88
2018-10-17T09:52:28.832Z,2407.50
2018-10-17T09:53:28.977Z,2401.88
2018-10-17T09:54:28.851Z,2418.75
2018-10-17T09:55:28.861Z,2430.00
2018-10-17T09:56:28.864Z,2413.13
2018-10-17T09:57:28.880Z,2418.75
2018-10-17T09:58:28.887Z,2351.25
2018-10-17T09:59:28.904Z,2300.63
2018-10-17T10:00:28.903Z,2334.38
2018-10-17T10:01:28.916Z,2311.88
2018-10-17T10:02:29.029Z,2334.38
2018-10-17T10:03:28.938Z,2407.50
2018-10-17T10:04:28.952Z,2255.63
2018-10-17T10:05:28.971Z,1417.50
2018-10-17T10:06:28.972Z,624.38
2018-10-17T10:07:28.985Z,433.13
2018-10-17T10:08:28.993Z,410.63
2018-10-17T10:09:29.008Z,399.38
2018-10-17T10:10:29.017Z,388.13
2018-10-17T10:11:29.038Z,388.13
2018-10-17T10:12:29.041Z,382.50
2018-10-17T10:13:29.049Z,376.88
2018-10-17T10:14:29.057Z,371.25
2018-10-17T10:15:29.077Z,365.63
2018-10-17T10:16:29.084Z,365.63
2018-10-17T10:17:29.103Z,365.63
2018-10-17T10:18:29.100Z,360.00
2018-10-17T10:19:29.109Z,360.00
2018-10-17T10:20:29.120Z,360.00
2018-10-17T10:21:29.125Z,354.38
2018-10-17T10:22:29.159Z,348.75
2018-10-17T10:23:29.203Z,348.75
2018-10-17T10:24:29.154Z,348.75
2018-10-17T10:25:29.164Z,343.13
2018-10-17T10:26:29.163Z,337.50
2018-10-17T10:27:29.178Z,337.50
2018-10-17T10:28:29.189Z,337.50
2018-10-17T10:29:29.194Z,331.88
2018-10-17T10:30:29.202Z,326.25
2018-10-17T10:31:29.245Z,326.25
2018-10-17T10:32:29.216Z,320.63
2018-10-17T10:33:29.223Z,315.00
2018-10-17T10:34:29.229Z,309.38
2018-10-17T10:35:29.236Z,303.75
2018-10-17T10:36:29.246Z,303.75
2018-10-17T10:37:29.252Z,298.13
2018-10-17T10:38:29.254Z,298.13
2018-10-17T10:39:29.275Z,292.50
2018-10-17T10:40:29.293Z,292.50
2018-10-17T10:41:29.315Z,286.88
2018-10-17T10:42:29.291Z,286.88
2018-10-17T10:43:29.289Z,286.88
2018-10-17T10:44:29.302Z,286.88
2018-10-17T10:45:29.322Z,281.25
2018-10-17T10:46:29.312Z,281.25
2018-10-17T10:47:29.320Z,281.25
2018-10-17T10:48:29.322Z,275.63
2018-10-17T10:49:29.347Z,275.63
2018-10-17T10:50:29.335Z,270.00
2018-10-17T10:51:29.426Z,270.00
2018-10-17T10:52:29.353Z,270.00
2018-10-17T10:53:29.362Z,264.38
2018-10-17T10:54:29.373Z,264.38
2018-10-17T10:55:29.365Z,264.38
2018-10-17T10:56:29.372Z,258.75
2018-10-17T10:57:29.387Z,258.75
2018-10-17T10:58:29.484Z,258.75
2018-10-17T10:59:29.658Z,258.75
2018-10-17T11:00:29.398Z,258.75
2018-10-17T11:01:29.403Z,258.75
2018-10-17T11:02:29.410Z,258.75
2018-10-17T11:03:29.417Z,258.75
2018-10-17T11:04:29.514Z,253.13
2018-10-17T11:05:29.592Z,253.13
2018-10-17T11:06:29.446Z,253.13
2018-10-17T11:07:29.444Z,253.13
2018-10-17T11:08:29.527Z,247.50
2018-10-17T11:09:29.455Z,247.50
2018-10-17T11:10:29.466Z,247.50
2018-10-17T11:11:29.496Z,241.88
2018-10-17T11:12:29.473Z,241.88
2018-10-17T11:13:29.477Z,241.88
2018-10-17T11:14:29.692Z,241.88
2018-10-17T11:15:29.539Z,241.88
2018-10-17T11:16:29.495Z,241.88
2018-10-17T11:17:29.508Z,241.88
2018-10-17T11:18:29.507Z,236.25
2018-10-17T11:19:29.515Z,236.25
2018-10-17T11:20:29.529Z,236.25
2018-10-17T11:21:29.529Z,236.25
2018-10-17T11:22:29.548Z,236.25
2018-10-17T11:23:29.543Z,230.63
2018-10-17T11:24:29.563Z,230.63
2018-10-17T11:25:30.235Z,230.63
2018-10-17T11:26:29.565Z,230.63
2018-10-17T11:27:29.564Z,236.25
2018-10-17T11:28:29.569Z,230.63
2018-10-17T11:29:29.646Z,230.63
2018-10-17T11:30:29.592Z,230.63
2018-10-17T11:31:29.648Z,230.63
2018-10-17T11:32:29.596Z,225.00
2018-10-17T11:33:29.605Z,225.00
2018-10-17T11:34:29.610Z,230.63
2018-10-17T11:35:29.617Z,230.63
2018-10-17T11:36:29.631Z,230.63
2018-10-17T11:37:29.655Z,230.63
2018-10-17T11:38:29.634Z,219.38
2018-10-17T11:39:29.639Z,225.00
2018-10-17T11:40:29.662Z,225.00
2018-10-17T11:41:29.665Z,225.00
2018-10-17T11:42:29.654Z,225.00
2018-10-17T11:43:29.666Z,225.00
2018-10-17T11:44:29.786Z,219.38
2018-10-17T11:45:29.698Z,219.38
2018-10-17T11:46:29.680Z,219.38
2018-10-17T11:47:29.689Z,219.38
2018-10-17T11:48:29.693Z,219.38
2018-10-17T11:49:29.698Z,219.38
2018-10-17T11:50:29.717Z,213.75
2018-10-17T11:51:29.710Z,213.75
2018-10-17T11:52:29.714Z,213.75
2018-10-17T11:53:29.720Z,213.75
2018-10-17T11:54:29.746Z,213.75
2018-10-17T11:55:29.736Z,208.13
2018-10-17T11:56:29.744Z,180.00
2018-10-17T11:57:29.743Z,196.88
2018-10-17T11:58:29.766Z,191.25
2018-10-17T11:59:29.777Z,208.13
2018-10-17T12:00:29.765Z,202.50
2018-10-17T12:01:29.769Z,202.50
2018-10-17T12:02:29.829Z,202.50
2018-10-17T12:03:29.850Z,196.88
2018-10-17T12:04:29.924Z,202.50
2018-10-17T12:05:30.185Z,196.88
2018-10-17T12:06:29.921Z,196.88
2018-10-17T12:07:29.828Z,180.00
2018-10-17T12:08:29.809Z,180.00
2018-10-17T12:09:29.935Z,174.38
2018-10-17T12:10:29.826Z,168.75
2018-10-17T12:11:29.868Z,163.13
2018-10-17T12:12:29.842Z,157.50
2018-10-17T12:13:29.857Z,163.13
2018-10-17T12:14:29.880Z,163.13
2018-10-17T12:15:29.968Z,146.25
2018-10-17T12:16:29.857Z,151.88
2018-10-17T12:17:29.863Z,151.88
2018-10-17T12:18:29.866Z,157.50
2018-10-17T12:19:29.877Z,163.13
2018-10-17T12:20:29.880Z,151.88
2018-10-17T12:21:29.894Z,157.50
2018-10-17T12:22:29.891Z,157.50
2018-10-17T12:23:30.751Z,157.50
2018-10-17T12:24:29.901Z,135.00
2018-10-17T12:25:30.010Z,157.50
2018-10-17T12:26:29.913Z,151.88
2018-10-17T12:27:29.918Z,163.13
2018-10-17T12:28:29.991Z,157.50
2018-10-17T12:29:29.984Z,163.13
2018-10-17T12:30:29.950Z,151.88
2018-10-17T12:31:29.941Z,129.38
2018-10-17T12:32:29.961Z,123.75
2018-10-17T12:33:29.950Z,123.75
2018-10-17T12:34:29.954Z,123.75
2018-10-17T12:35:29.962Z,123.75
2018-10-17T12:36:29.974Z,129.38
2018-10-17T12:37:29.972Z,140.63
2018-10-17T12:38:29.993Z,146.25
2018-10-17T12:39:30.091Z,151.88
2018-10-17T12:40:30.138Z,140.63
2018-10-17T12:41:30.080Z,140.63
2018-10-17T12:42:30.017Z,135.00
2018-10-17T12:43:30.003Z,135.00
2018-10-17T12:44:30.013Z,146.25
2018-10-17T12:45:30.022Z,140.63
2018-10-17T12:46:30.023Z,140.63
2018-10-17T12:47:30.031Z,135.00
2018-10-17T12:48:30.046Z,135.00
2018-10-17T12:49:30.037Z,135.00
2018-10-17T12:50:30.068Z,135.00
2018-10-17T12:51:30.048Z,135.00
2018-10-17T12:52:30.094Z,135.00
2018-10-17T12:53:30.126Z,135.00
2018-10-17T12:54:30.062Z,135.00
2018-10-17T12:55:30.072Z,135.00
2018-10-17T12:56:30.077Z,135.00
2018-10-17T12:57:30.087Z,135.00
2018-10-17T12:58:30.096Z,135.00
2018-10-17T12:59:30.124Z,135.00
2018-10-17T13:00:30.099Z,135.00
2018-10-17T13:01:30.102Z,135.00
2018-10-17T13:02:30.110Z,135.00
2018-10-17T13:03:30.116Z,135.00
2018-10-17T13:04:30.120Z,135.00
2018-10-17T13:05:30.125Z,135.00
2018-10-17T13:06:30.130Z,135.00
2018-10-17T13:07:30.136Z,135.00
2018-10-17T13:08:30.141Z,135.00
2018-10-17T13:09:30.149Z,135.00
2018-10-17T13:10:30.150Z,135.00
2018-10-17T13:11:30.175Z,135.00
2018-10-17T13:12:30.164Z,135.00
2018-10-17T13:13:30.167Z,129.38
2018-10-17T13:14:30.176Z,129.38
2018-10-17T13:15:30.181Z,123.75
2018-10-17T13:16:30.186Z,123.75
2018-10-17T13:17:30.190Z,123.75
2018-10-17T13:18:30.246Z,123.75
2018-10-17T13:19:30.207Z,123.75
2018-10-17T13:20:30.229Z,112.50
2018-10-17T13:21:30.213Z,101.25
2018-10-17T13:22:30.218Z,95.63
2018-10-17T13:23:30.224Z,95.63
2018-10-17T13:24:30.241Z,95.63
2018-10-17T13:25:30.236Z,101.25
2018-10-17T13:26:30.242Z,101.25
2018-10-17T13:27:30.248Z,95.63
2018-10-17T13:28:30.275Z,90.00
2018-10-17T13:29:30.255Z,90.00
2018-10-17T13:30:30.276Z,84.38